Kimitsumaru — JD2860 — position and weather

sailwx.info

Track history (hours):
 
Tides and Currents Weather Stations Pressure Air Temp Water Temp Dewpoint Dewpoint Depression Visibility Wind Speed Wind Dir Waves Ship Positions

Kimitsumaru

Last reported at 2018-Jul-22 12:28 UTC. Time now 2018-Jul-22 12:45 UTC.
Position N 35°21' E 139°54'.

Length 38 m; draft 3.8 m.

Type: Tug. MMSI: 431000894.

Date/timePositionNaut miles runAvg speedWind from/ knotsBaromVisibWave heightAir tempDewpointWater temp
2018-Jul-22 12:28N 35°21' E 139°54'0 0.0
2018-Jul-22 12:00N 35°21' E 139°54'0 0.0
2018-Jul-22 11:29N 35°21' E 139°54'0 0.0
2018-Jul-22 10:59N 35°21' E 139°54'0 0.0
2018-Jul-22 08:41N 35°21' E 139°54'0 0.0
2018-Jul-22 08:27N 35°21' E 139°54'0 0.0
2018-Jul-22 07:52N 35°21' E 139°54'0 0.0
2018-Jul-22 07:28N 35°21' E 139°54'0 0.0
2018-Jul-22 06:57N 35°21' E 139°54'0 0.0
2018-Jul-22 06:26N 35°21' E 139°54'0 0.0
2018-Jul-22 05:59N 35°21' E 139°54'0 0.0
2018-Jul-22 05:30N 35°21' E 139°54'0 0.0
2018-Jul-22 04:59N 35°22' E 139°54'4 8.2
2018-Jul-22 04:31N 35°21' E 139°49'0 0.4
2018-Jul-22 04:00N 35°20' E 139°49'2 4.1
2018-Jul-22 03:30N 35°22' E 139°48'0 0.0
2018-Jul-22 03:01N 35°22' E 139°48'0 0.0
2018-Jul-22 02:30N 35°22' E 139°48'0 0.0
2018-Jul-22 02:00N 35°22' E 139°48'0 0.0
2018-Jul-22 01:31N 35°22' E 139°48'2 3.2
2018-Jul-22 01:00N 35°21' E 139°49'0 0.1
2018-Jul-22 00:30N 35°21' E 139°49'2 4.5
2018-Jul-21 23:58N 35°23' E 139°51'3 5.0
2018-Jul-21 23:27N 35°22' E 139°54'0 0.0
2018-Jul-21 22:53N 35°22' E 139°54'0 0.0
2018-Jul-21 22:30N 35°22' E 139°54'0 0.0
2018-Jul-21 22:01N 35°22' E 139°54'0 0.0
2018-Jul-21 21:24N 35°22' E 139°54'0 0.0
2018-Jul-21 21:00N 35°22' E 139°54'0 0.0
2018-Jul-21 20:16N 35°22' E 139°54'0 0.0
2018-Jul-21 19:58N 35°22' E 139°54'0 0.0
2018-Jul-21 19:30N 35°22' E 139°54'0 0.0
2018-Jul-21 18:59N 35°22' E 139°54'0 0.0
2018-Jul-21 18:31N 35°22' E 139°54'0 0.0
2018-Jul-21 17:59N 35°22' E 139°54'0 0.0
2018-Jul-21 17:30N 35°22' E 139°54'0 0.0
2018-Jul-21 16:54N 35°22' E 139°54'0 0.0
2018-Jul-21 16:07N 35°22' E 139°54'0 0.0
2018-Jul-21 16:01N 35°22' E 139°54'0 0.0
2018-Jul-21 15:30N 35°22' E 139°54'0 0.0
2018-Jul-21 14:58N 35°22' E 139°54'0 0.0
2018-Jul-21 14:30N 35°22' E 139°54'0 0.0
2018-Jul-21 13:23N 35°22' E 139°54'0 0.0
2018-Jul-21 12:42N 35°22' E 139°54'0 0.0
2018-Jul-21 12:22N 35°22' E 139°54'0 0.0
2018-Jul-21 10:02N 35°22' E 139°54'0 0.0
2018-Jul-21 09:53N 35°22' E 139°54'0 0.0
2018-Jul-21 09:31N 35°22' E 139°54'0 0.0
2018-Jul-21 09:00N 35°22' E 139°54'0 0.0
2018-Jul-21 08:26N 35°22' E 139°54'0 0.0
2018-Jul-21 08:00N 35°22' E 139°54'2 3.3
2018-Jul-21 07:28N 35°22' E 139°52'1 2.7
2018-Jul-21 07:01N 35°21' E 139°51'1 2.3
2018-Jul-21 06:31N 35°22' E 139°50'3 5.0
2018-Jul-21 06:00N 35°25' E 139°49'3 5.7
2018-Jul-21 05:30N 35°22' E 139°52'2 3.7
2018-Jul-21 05:00N 35°22' E 139°54'0 0.0
2018-Jul-21 04:05N 35°22' E 139°54'0 0.0
2018-Jul-21 03:58N 35°22' E 139°54'0 0.0
2018-Jul-21 03:28N 35°22' E 139°54'0 0.0
2018-Jul-21 03:00N 35°22' E 139°54'4 7.8
2018-Jul-21 02:30N 35°22' E 139°49'0 0.9
2018-Jul-21 02:01N 35°21' E 139°49'4 7.3
2018-Jul-21 01:27N 35°22' E 139°54'0 0.0
2018-Jul-21 00:59N 35°22' E 139°54'0 0.0
2018-Jul-21 00:29N 35°22' E 139°54'0 0.0
2018-Jul-21 00:01N 35°22' E 139°54'0 0.0
2018-Jul-20 23:31N 35°22' E 139°54'1 1.3
2018-Jul-20 22:46N 35°22' E 139°53'2 7.6
2018-Jul-20 22:30N 35°22' E 139°50'0 0.7
2018-Jul-20 22:00N 35°22' E 139°51'3 5.0
2018-Jul-20 21:29N 35°21' E 139°54'0 0.0
2018-Jul-20 20:58N 35°21' E 139°54'0 0.0
2018-Jul-20 20:26N 35°21' E 139°54'0 0.0
2018-Jul-20 19:58N 35°21' E 139°54'0 0.0
2018-Jul-20 18:11N 35°21' E 139°54'0 0.0
2018-Jul-20 17:57N 35°21' E 139°54'0 0.0
2018-Jul-20 17:30N 35°21' E 139°54'0 0.0
2018-Jul-20 16:55N 35°21' E 139°54'0 0.0
2018-Jul-20 16:29N 35°21' E 139°54'0 0.0
2018-Jul-20 15:59N 35°21' E 139°54'0 0.0
2018-Jul-20 15:14N 35°21' E 139°54'0 0.0
2018-Jul-20 15:00N 35°21' E 139°54'0 0.0
2018-Jul-20 14:27N 35°21' E 139°54'0 0.0
2018-Jul-20 13:55N 35°21' E 139°54'0 0.0
2018-Jul-20 13:26N 35°21' E 139°54'0 0.0
2018-Jul-20 13:00N 35°21' E 139°54'0 0.0
2018-Jul-20 12:28N 35°21' E 139°54'0 0.0
2018-Jul-20 11:59N 35°21' E 139°54'0 0.0
2018-Jul-20 11:30N 35°21' E 139°54'0 0.0
2018-Jul-20 10:59N 35°21' E 139°54'0 0.0
2018-Jul-20 10:30N 35°21' E 139°54'2 3.2
2018-Jul-20 09:56N 35°22' E 139°52'1 2.6
2018-Jul-20 09:30N 35°22' E 139°51'2 3.8
2018-Jul-20 09:00N 35°23' E 139°49'2 4.1
2018-Jul-20 08:31N 35°24' E 139°51'3 5.7
2018-Jul-20 08:00N 35°22' E 139°53'612.1
2018-Jul-20 07:31N 35°23' E 139°46'611.0
2018-Jul-20 07:00N 35°24' E 139°39'1 2.0
2018-Jul-20 06:30N 35°24' E 139°38'0 0.1
2018-Jul-20 06:00N 35°24' E 139°38'1 1.5
2018-Jul-20 05:30N 35°24' E 139°39'2 3.7
2018-Jul-20 05:00N 35°23' E 139°41'2 4.5
2018-Jul-20 04:30N 35°23' E 139°44'5 9.7
2018-Jul-20 04:00N 35°23' E 139°50'3 5.1
2018-Jul-20 03:29N 35°22' E 139°53'0 0.0
2018-Jul-20 03:00N 35°22' E 139°53'0 0.0
2018-Jul-20 02:30N 35°22' E 139°53'0 0.0
2018-Jul-20 02:00N 35°22' E 139°53'0 0.0
2018-Jul-20 01:30N 35°22' E 139°53'0 0.0
2018-Jul-20 00:59N 35°22' E 139°53'0 0.1
2018-Jul-20 00:26N 35°22' E 139°53'0 0.1
2018-Jul-20 00:00N 35°22' E 139°53'0 0.0
2018-Jul-19 23:28N 35°22' E 139°53'0 0.0
2018-Jul-19 23:00N 35°22' E 139°53'0 0.0
2018-Jul-19 22:30N 35°22' E 139°53'1 1.6
2018-Jul-19 22:00N 35°22' E 139°52'1 2.4
2018-Jul-19 21:30N 35°22' E 139°53'1 0.0
2018-Jul-19 08:37N 35°22' E 139°54'0 0.0
2018-Jul-19 08:25N 35°22' E 139°54'0 0.0
2018-Jul-19 08:00N 35°22' E 139°54'0 0.0
2018-Jul-19 07:30N 35°22' E 139°54'0 0.0
2018-Jul-19 07:00N 35°22' E 139°54'0 0.0
2018-Jul-19 06:30N 35°22' E 139°54'1 1.7
2018-Jul-19 05:57N 35°22' E 139°53'5 9.8
2018-Jul-19 05:29N 35°27' E 139°52'4 8.5
2018-Jul-19 05:00N 35°29' E 139°56'3 4.9
2018-Jul-19 04:29N 35°29' E 139°60'1 2.6
2018-Jul-19 04:00N 35°29' E 140°01'0 0.4
2018-Jul-19 03:28N 35°29' E 140°01'1 0.4
2018-Jul-19 01:22N 35°29' E 139°60'0 0.0
2018-Jul-19 00:53N 35°29' E 139°60'1 1.6
2018-Jul-19 00:26N 35°29' E 140°01'0 0.6
2018-Jul-18 23:58N 35°29' E 140°00'2 3.9
2018-Jul-18 23:22N 35°29' E 139°58'2 0.9
2018-Jul-18 21:19N 35°27' E 139°58'2 5.0
2018-Jul-18 21:00N 35°29' E 139°57'1 1.5
2018-Jul-18 20:30N 35°29' E 139°56'2 3.4
2018-Jul-18 19:57N 35°28' E 139°54'511.7
2018-Jul-18 19:30N 35°23' E 139°51'3 5.2
2018-Jul-18 19:00N 35°21' E 139°54'0 0.0
2018-Jul-18 18:30N 35°21' E 139°54'0 0.0
2018-Jul-18 18:00N 35°21' E 139°54'0 0.0
2018-Jul-18 17:30N 35°21' E 139°54'0 0.0
2018-Jul-18 17:00N 35°21' E 139°54'0 0.0
2018-Jul-18 16:30N 35°21' E 139°54'0 0.0
2018-Jul-18 16:00N 35°21' E 139°54'0 0.0
2018-Jul-18 15:30N 35°21' E 139°54'0 0.0
2018-Jul-18 14:59N 35°21' E 139°54'0 0.0
2018-Jul-18 14:30N 35°21' E 139°54'0 0.0
2018-Jul-18 13:30N 35°21' E 139°54'0 0.0
2018-Jul-18 12:59N 35°21' E 139°54'0 0.0
2018-Jul-18 12:29N 35°21' E 139°54'0 0.0
2018-Jul-18 12:00N 35°21' E 139°54'0 0.0
2018-Jul-18 11:30N 35°21' E 139°54'0 0.0
2018-Jul-18 10:30N 35°21' E 139°54'0 0.0
2018-Jul-18 10:00N 35°21' E 139°54'0 0.0
2018-Jul-18 09:30N 35°21' E 139°54'0 0.0
2018-Jul-18 09:00N 35°21' E 139°54'0 0.0
2018-Jul-18 08:30N 35°21' E 139°54'0 0.0
2018-Jul-18 08:00N 35°21' E 139°54'0 0.0
2018-Jul-18 07:30N 35°21' E 139°54'0 0.0
2018-Jul-18 07:00N 35°21' E 139°54'0 0.0
2018-Jul-18 06:28N 35°21' E 139°54'0 0.0
2018-Jul-18 06:00N 35°21' E 139°54'0 0.0
2018-Jul-17 22:15N 35°22' E 139°54'1 5.7
2018-Jul-17 22:01N 35°22' E 139°52'0 0.1
2018-Jul-17 21:30N 35°22' E 139°52'0 0.8
2018-Jul-17 20:58N 35°22' E 139°52'2 4.1
2018-Jul-17 20:30N 35°23' E 139°50'2 4.6
2018-Jul-17 20:00N 35°25' E 139°49'3 4.9
2018-Jul-17 19:29N 35°24' E 139°51'2 4.1
2018-Jul-17 19:00N 35°22' E 139°52'0 0.4
2018-Jul-17 18:30N 35°22' E 139°52'1 0.2
2018-Jul-17 09:37N 35°22' E 139°54'0 0.0
2018-Jul-17 09:30N 35°22' E 139°54'2 3.9
2018-Jul-17 09:00N 35°22' E 139°52'1 2.2
2018-Jul-17 08:30N 35°22' E 139°51'1 2.4
2018-Jul-17 08:00N 35°22' E 139°50'0 0.1
2018-Jul-17 07:30N 35°22' E 139°50'0 0.1
2018-Jul-17 07:00N 35°22' E 139°50'1 2.2
2018-Jul-17 06:30N 35°22' E 139°51'2 3.4
2018-Jul-17 06:00N 35°21' E 139°49'0 0.1
2018-Jul-17 05:31N 35°21' E 139°49'2 3.5
2018-Jul-17 05:00N 35°21' E 139°51'0 0.3
2018-Jul-17 04:30N 35°21' E 139°51'1 2.3
2018-Jul-17 04:00N 35°22' E 139°50'0 0.2
2018-Jul-17 03:30N 35°22' E 139°50'1 1.5
2018-Jul-17 03:00N 35°22' E 139°51'1 1.2
2018-Jul-17 02:30N 35°22' E 139°50'3 0.2
2018-Jul-16 06:18N 35°22' E 139°54'310.6
2018-Jul-16 06:00N 35°22' E 139°50'2 3.6
2018-Jul-16 05:30N 35°20' E 139°49'0 0.1
2018-Jul-16 05:00N 35°20' E 139°49'0 0.2
2018-Jul-16 04:30N 35°20' E 139°49'1 2.2
2018-Jul-16 04:00N 35°21' E 139°49'1 2.7
2018-Jul-16 03:30N 35°23' E 139°48'0 0.2
2018-Jul-16 03:00N 35°23' E 139°48'3 6.7
2018-Jul-16 02:30N 35°22' E 139°52'2 0.2
2018-Jul-15 17:18N 35°22' E 139°54'2 5.2
2018-Jul-15 17:00N 35°22' E 139°52'0 0.0
2018-Jul-15 16:30N 35°22' E 139°52'0 0.7
2018-Jul-15 15:58N 35°22' E 139°52'2 4.4
2018-Jul-15 15:30N 35°23' E 139°50'2 4.1
2018-Jul-15 15:00N 35°25' E 139°49'1 1.2
2018-Jul-15 14:30N 35°26' E 139°50'4 8.2
2018-Jul-15 14:00N 35°22' E 139°52'0 0.4
2018-Jul-15 13:30N 35°22' E 139°52'1 1.6
2018-Jul-15 12:33N 35°22' E 139°54'0 0.0
2018-Jul-15 12:24N 35°22' E 139°54'0 0.0
2018-Jul-15 11:51N 35°22' E 139°54'0 0.0
2018-Jul-15 09:08N 35°22' E 139°54'1 4.3
2018-Jul-15 08:56N 35°22' E 139°53'0 0.0
2018-Jul-15 08:30N 35°22' E 139°53'0 1.0
2018-Jul-15 07:59N 35°22' E 139°53'0 0.5
2018-Jul-15 06:58N 35°22' E 139°54'0 0.0
2018-Jul-15 05:43N 35°22' E 139°54'0 0.0
2018-Jul-15 05:16N 35°22' E 139°54'0 0.0
2018-Jul-15 04:54N 35°22' E 139°54'0 0.0
2018-Jul-15 01:27N 35°22' E 139°54'0 0.0
2018-Jul-15 01:00N 35°22' E 139°54'0 0.0
2018-Jul-15 00:14N 35°22' E 139°54'0 0.0
2018-Jul-14 23:57N 35°22' E 139°54'0 0.0
2018-Jul-14 23:27N 35°22' E 139°54'0 0.6
2018-Jul-14 23:00N 35°22' E 139°54'1 2.1
2018-Jul-14 22:26N 35°22' E 139°52'0 0.6
2018-Jul-14 22:00N 35°22' E 139°52'2 3.6
2018-Jul-14 21:30N 35°23' E 139°50'2 4.5
2018-Jul-14 21:00N 35°25' E 139°48'1 1.8
2018-Jul-14 20:30N 35°25' E 139°49'4 8.2
2018-Jul-14 20:00N 35°22' E 139°52'1 0.1
2018-Jul-14 04:46N 35°22' E 139°54'2 7.3
2018-Jul-14 04:29N 35°22' E 139°52'3 5.3
2018-Jul-14 04:00N 35°21' E 139°49'0 0.0
2018-Jul-14 03:30N 35°21' E 139°49'0 0.2
2018-Jul-14 03:00N 35°21' E 139°49'2 3.2
2018-Jul-14 02:31N 35°22' E 139°48'1 1.1
2018-Jul-14 02:00N 35°23' E 139°48'0 0.2
2018-Jul-14 01:30N 35°23' E 139°48'4 7.2
2018-Jul-14 01:00N 35°22' E 139°52'1 2.6
2018-Jul-14 00:30N 35°21' E 139°54'0 0.0
2018-Jul-13 23:51N 35°21' E 139°54'1 2.2
2018-Jul-13 23:28N 35°22' E 139°53'0 0.3
2018-Jul-13 23:00N 35°22' E 139°53'2 3.5
2018-Jul-13 22:30N 35°23' E 139°51'0 0.5
2018-Jul-13 22:00N 35°23' E 139°51'0 0.4
2018-Jul-13 21:30N 35°23' E 139°51'2 4.5
2018-Jul-13 21:00N 35°22' E 139°54'0 0.0
2018-Jul-13 06:19N 35°22' E 139°54'310.1
2018-Jul-13 06:00N 35°23' E 139°50'2 4.5
2018-Jul-13 05:30N 35°21' E 139°49'0 0.2
2018-Jul-13 05:00N 35°20' E 139°49'0 0.5
2018-Jul-13 04:30N 35°21' E 139°49'0 0.2
2018-Jul-13 04:00N 35°21' E 139°49'0 0.3
2018-Jul-13 03:30N 35°20' E 139°49'0 0.5
2018-Jul-13 03:00N 35°21' E 139°49'0 0.3
2018-Jul-13 02:30N 35°21' E 139°49'0 0.4
2018-Jul-13 02:00N 35°21' E 139°49'0 0.4
2018-Jul-13 01:30N 35°21' E 139°49'0 0.7
2018-Jul-13 01:00N 35°21' E 139°49'0 0.7
2018-Jul-13 00:30N 35°21' E 139°49'0 0.1
2018-Jul-13 00:00N 35°21' E 139°49'0 0.3
2018-Jul-12 23:29N 35°21' E 139°49'0 0.4
2018-Jul-12 23:00N 35°21' E 139°49'0 0.6
2018-Jul-12 22:30N 35°21' E 139°49'0 0.3
2018-Jul-12 22:00N 35°20' E 139°49'0 0.2
2018-Jul-12 21:31N 35°20' E 139°49'0 0.5
2018-Jul-12 21:00N 35°21' E 139°49'0 0.3
2018-Jul-12 20:30N 35°20' E 139°49'0 0.6
2018-Jul-12 20:00N 35°21' E 139°49'0 0.4
2018-Jul-12 19:31N 35°21' E 139°49'0 0.0
2018-Jul-12 19:00N 35°21' E 139°49'0 0.1
2018-Jul-12 18:30N 35°21' E 139°49'0 0.1
2018-Jul-12 18:00N 35°21' E 139°49'0 0.0
2018-Jul-12 17:30N 35°21' E 139°49'0 0.1
2018-Jul-12 17:00N 35°21' E 139°49'0 0.1
2018-Jul-12 16:31N 35°21' E 139°49'0 0.0
2018-Jul-12 16:00N 35°21' E 139°49'0 0.0
2018-Jul-12 15:30N 35°21' E 139°49'0 0.0
2018-Jul-12 15:00N 35°21' E 139°49'0 0.0
2018-Jul-12 14:30N 35°21' E 139°49'0 0.0
2018-Jul-12 14:00N 35°21' E 139°49'0 0.0
2018-Jul-12 13:30N 35°21' E 139°49'0 0.7
2018-Jul-12 13:01N 35°21' E 139°49'0 0.3
2018-Jul-12 12:28N 35°21' E 139°49'  
Track history (hours):
 
Tides and Currents Weather Stations Pressure Air Temp Water Temp Dewpoint Dewpoint Depression Visibility Wind Speed Wind Dir Waves Ship Positions

Kimitsumaru

Last reported at 2018-Jul-22 12:28 UTC. Time now 2018-Jul-22 12:45 UTC.
Position N 35°21' E 139°54'.

Length 38 m; draft 3.8 m.

Type: Tug. MMSI: 431000894.

Date/timePositionNaut miles runAvg speedWind from/ knotsBaromVisibWave heightAir tempDewpointWater temp
2018-Jul-22 12:28N 35°21' E 139°54'0 0.0
2018-Jul-22 12:00N 35°21' E 139°54'0 0.0
2018-Jul-22 11:29N 35°21' E 139°54'0 0.0
2018-Jul-22 10:59N 35°21' E 139°54'0 0.0
2018-Jul-22 08:41N 35°21' E 139°54'0 0.0
2018-Jul-22 08:27N 35°21' E 139°54'0 0.0
2018-Jul-22 07:52N 35°21' E 139°54'0 0.0
2018-Jul-22 07:28N 35°21' E 139°54'0 0.0
2018-Jul-22 06:57N 35°21' E 139°54'0 0.0
2018-Jul-22 06:26N 35°21' E 139°54'0 0.0
2018-Jul-22 05:59N 35°21' E 139°54'0 0.0
2018-Jul-22 05:30N 35°21' E 139°54'0 0.0
2018-Jul-22 04:59N 35°22' E 139°54'4 8.2
2018-Jul-22 04:31N 35°21' E 139°49'0 0.4
2018-Jul-22 04:00N 35°20' E 139°49'2 4.1
2018-Jul-22 03:30N 35°22' E 139°48'0 0.0
2018-Jul-22 03:01N 35°22' E 139°48'0 0.0
2018-Jul-22 02:30N 35°22' E 139°48'0 0.0
2018-Jul-22 02:00N 35°22' E 139°48'0 0.0
2018-Jul-22 01:31N 35°22' E 139°48'2 3.2
2018-Jul-22 01:00N 35°21' E 139°49'0 0.1
2018-Jul-22 00:30N 35°21' E 139°49'2 4.5
2018-Jul-21 23:58N 35°23' E 139°51'3 5.0
2018-Jul-21 23:27N 35°22' E 139°54'0 0.0
2018-Jul-21 22:53N 35°22' E 139°54'0 0.0
2018-Jul-21 22:30N 35°22' E 139°54'0 0.0
2018-Jul-21 22:01N 35°22' E 139°54'0 0.0
2018-Jul-21 21:24N 35°22' E 139°54'0 0.0
2018-Jul-21 21:00N 35°22' E 139°54'0 0.0
2018-Jul-21 20:16N 35°22' E 139°54'0 0.0
2018-Jul-21 19:58N 35°22' E 139°54'0 0.0
2018-Jul-21 19:30N 35°22' E 139°54'0 0.0
2018-Jul-21 18:59N 35°22' E 139°54'0 0.0
2018-Jul-21 18:31N 35°22' E 139°54'0 0.0
2018-Jul-21 17:59N 35°22' E 139°54'0 0.0
2018-Jul-21 17:30N 35°22' E 139°54'0 0.0
2018-Jul-21 16:54N 35°22' E 139°54'0 0.0
2018-Jul-21 16:07N 35°22' E 139°54'0 0.0
2018-Jul-21 16:01N 35°22' E 139°54'0 0.0
2018-Jul-21 15:30N 35°22' E 139°54'0 0.0
2018-Jul-21 14:58N 35°22' E 139°54'0 0.0
2018-Jul-21 14:30N 35°22' E 139°54'0 0.0
2018-Jul-21 13:23N 35°22' E 139°54'0 0.0
2018-Jul-21 12:42N 35°22' E 139°54'0 0.0
2018-Jul-21 12:22N 35°22' E 139°54'0 0.0
2018-Jul-21 10:02N 35°22' E 139°54'0 0.0
2018-Jul-21 09:53N 35°22' E 139°54'0 0.0
2018-Jul-21 09:31N 35°22' E 139°54'0 0.0
2018-Jul-21 09:00N 35°22' E 139°54'0 0.0
2018-Jul-21 08:26N 35°22' E 139°54'0 0.0
2018-Jul-21 08:00N 35°22' E 139°54'2 3.3
2018-Jul-21 07:28N 35°22' E 139°52'1 2.7
2018-Jul-21 07:01N 35°21' E 139°51'1 2.3
2018-Jul-21 06:31N 35°22' E 139°50'3 5.0
2018-Jul-21 06:00N 35°25' E 139°49'3 5.7
2018-Jul-21 05:30N 35°22' E 139°52'2 3.7
2018-Jul-21 05:00N 35°22' E 139°54'0 0.0
2018-Jul-21 04:05N 35°22' E 139°54'0 0.0
2018-Jul-21 03:58N 35°22' E 139°54'0 0.0
2018-Jul-21 03:28N 35°22' E 139°54'0 0.0
2018-Jul-21 03:00N 35°22' E 139°54'4 7.8
2018-Jul-21 02:30N 35°22' E 139°49'0 0.9
2018-Jul-21 02:01N 35°21' E 139°49'4 7.3
2018-Jul-21 01:27N 35°22' E 139°54'0 0.0
2018-Jul-21 00:59N 35°22' E 139°54'0 0.0
2018-Jul-21 00:29N 35°22' E 139°54'0 0.0
2018-Jul-21 00:01N 35°22' E 139°54'0 0.0
2018-Jul-20 23:31N 35°22' E 139°54'1 1.3
2018-Jul-20 22:46N 35°22' E 139°53'2 7.6
2018-Jul-20 22:30N 35°22' E 139°50'0 0.7
2018-Jul-20 22:00N 35°22' E 139°51'3 5.0
2018-Jul-20 21:29N 35°21' E 139°54'0 0.0
2018-Jul-20 20:58N 35°21' E 139°54'0 0.0
2018-Jul-20 20:26N 35°21' E 139°54'0 0.0
2018-Jul-20 19:58N 35°21' E 139°54'0 0.0
2018-Jul-20 18:11N 35°21' E 139°54'0 0.0
2018-Jul-20 17:57N 35°21' E 139°54'0 0.0
2018-Jul-20 17:30N 35°21' E 139°54'0 0.0
2018-Jul-20 16:55N 35°21' E 139°54'0 0.0
2018-Jul-20 16:29N 35°21' E 139°54'0 0.0
2018-Jul-20 15:59N 35°21' E 139°54'0 0.0
2018-Jul-20 15:14N 35°21' E 139°54'0 0.0
2018-Jul-20 15:00N 35°21' E 139°54'0 0.0
2018-Jul-20 14:27N 35°21' E 139°54'0 0.0
2018-Jul-20 13:55N 35°21' E 139°54'0 0.0
2018-Jul-20 13:26N 35°21' E 139°54'0 0.0
2018-Jul-20 13:00N 35°21' E 139°54'0 0.0
2018-Jul-20 12:28N 35°21' E 139°54'0 0.0
2018-Jul-20 11:59N 35°21' E 139°54'0 0.0
2018-Jul-20 11:30N 35°21' E 139°54'0 0.0
2018-Jul-20 10:59N 35°21' E 139°54'0 0.0
2018-Jul-20 10:30N 35°21' E 139°54'2 3.2
2018-Jul-20 09:56N 35°22' E 139°52'1 2.6
2018-Jul-20 09:30N 35°22' E 139°51'2 3.8
2018-Jul-20 09:00N 35°23' E 139°49'2 4.1
2018-Jul-20 08:31N 35°24' E 139°51'3 5.7
2018-Jul-20 08:00N 35°22' E 139°53'612.1
2018-Jul-20 07:31N 35°23' E 139°46'611.0
2018-Jul-20 07:00N 35°24' E 139°39'1 2.0
2018-Jul-20 06:30N 35°24' E 139°38'0 0.1
2018-Jul-20 06:00N 35°24' E 139°38'1 1.5
2018-Jul-20 05:30N 35°24' E 139°39'2 3.7
2018-Jul-20 05:00N 35°23' E 139°41'2 4.5
2018-Jul-20 04:30N 35°23' E 139°44'5 9.7
2018-Jul-20 04:00N 35°23' E 139°50'3 5.1
2018-Jul-20 03:29N 35°22' E 139°53'0 0.0
2018-Jul-20 03:00N 35°22' E 139°53'0 0.0
2018-Jul-20 02:30N 35°22' E 139°53'0 0.0
2018-Jul-20 02:00N 35°22' E 139°53'0 0.0
2018-Jul-20 01:30N 35°22' E 139°53'0 0.0
2018-Jul-20 00:59N 35°22' E 139°53'0 0.1
2018-Jul-20 00:26N 35°22' E 139°53'0 0.1
2018-Jul-20 00:00N 35°22' E 139°53'0 0.0
2018-Jul-19 23:28N 35°22' E 139°53'0 0.0
2018-Jul-19 23:00N 35°22' E 139°53'0 0.0
2018-Jul-19 22:30N 35°22' E 139°53'1 1.6
2018-Jul-19 22:00N 35°22' E 139°52'1 2.4
2018-Jul-19 21:30N 35°22' E 139°53'1 0.0
2018-Jul-19 08:37N 35°22' E 139°54'0 0.0
2018-Jul-19 08:25N 35°22' E 139°54'0 0.0
2018-Jul-19 08:00N 35°22' E 139°54'0 0.0
2018-Jul-19 07:30N 35°22' E 139°54'0 0.0
2018-Jul-19 07:00N 35°22' E 139°54'0 0.0
2018-Jul-19 06:30N 35°22' E 139°54'1 1.7
2018-Jul-19 05:57N 35°22' E 139°53'5 9.8
2018-Jul-19 05:29N 35°27' E 139°52'4 8.5
2018-Jul-19 05:00N 35°29' E 139°56'3 4.9
2018-Jul-19 04:29N 35°29' E 139°60'1 2.6
2018-Jul-19 04:00N 35°29' E 140°01'0 0.4
2018-Jul-19 03:28N 35°29' E 140°01'1 0.4
2018-Jul-19 01:22N 35°29' E 139°60'0 0.0
2018-Jul-19 00:53N 35°29' E 139°60'1 1.6
2018-Jul-19 00:26N 35°29' E 140°01'0 0.6
2018-Jul-18 23:58N 35°29' E 140°00'2 3.9
2018-Jul-18 23:22N 35°29' E 139°58'2 0.9
2018-Jul-18 21:19N 35°27' E 139°58'2 5.0
2018-Jul-18 21:00N 35°29' E 139°57'1 1.5
2018-Jul-18 20:30N 35°29' E 139°56'2 3.4
2018-Jul-18 19:57N 35°28' E 139°54'511.7
2018-Jul-18 19:30N 35°23' E 139°51'3 5.2
2018-Jul-18 19:00N 35°21' E 139°54'0 0.0
2018-Jul-18 18:30N 35°21' E 139°54'0 0.0
2018-Jul-18 18:00N 35°21' E 139°54'0 0.0
2018-Jul-18 17:30N 35°21' E 139°54'0 0.0
2018-Jul-18 17:00N 35°21' E 139°54'0 0.0
2018-Jul-18 16:30N 35°21' E 139°54'0 0.0
2018-Jul-18 16:00N 35°21' E 139°54'0 0.0
2018-Jul-18 15:30N 35°21' E 139°54'0 0.0
2018-Jul-18 14:59N 35°21' E 139°54'0 0.0
2018-Jul-18 14:30N 35°21' E 139°54'0 0.0
2018-Jul-18 13:30N 35°21' E 139°54'0 0.0
2018-Jul-18 12:59N 35°21' E 139°54'0 0.0
2018-Jul-18 12:29N 35°21' E 139°54'0 0.0
2018-Jul-18 12:00N 35°21' E 139°54'0 0.0
2018-Jul-18 11:30N 35°21' E 139°54'0 0.0
2018-Jul-18 10:30N 35°21' E 139°54'0 0.0
2018-Jul-18 10:00N 35°21' E 139°54'0 0.0
2018-Jul-18 09:30N 35°21' E 139°54'0 0.0
2018-Jul-18 09:00N 35°21' E 139°54'0 0.0
2018-Jul-18 08:30N 35°21' E 139°54'0 0.0
2018-Jul-18 08:00N 35°21' E 139°54'0 0.0
2018-Jul-18 07:30N 35°21' E 139°54'0 0.0
2018-Jul-18 07:00N 35°21' E 139°54'0 0.0
2018-Jul-18 06:28N 35°21' E 139°54'0 0.0
2018-Jul-18 06:00N 35°21' E 139°54'0 0.0
2018-Jul-17 22:15N 35°22' E 139°54'1 5.7
2018-Jul-17 22:01N 35°22' E 139°52'0 0.1
2018-Jul-17 21:30N 35°22' E 139°52'0 0.8
2018-Jul-17 20:58N 35°22' E 139°52'2 4.1
2018-Jul-17 20:30N 35°23' E 139°50'2 4.6
2018-Jul-17 20:00N 35°25' E 139°49'3 4.9
2018-Jul-17 19:29N 35°24' E 139°51'2 4.1
2018-Jul-17 19:00N 35°22' E 139°52'0 0.4
2018-Jul-17 18:30N 35°22' E 139°52'1 0.2
2018-Jul-17 09:37N 35°22' E 139°54'0 0.0
2018-Jul-17 09:30N 35°22' E 139°54'2 3.9
2018-Jul-17 09:00N 35°22' E 139°52'1 2.2
2018-Jul-17 08:30N 35°22' E 139°51'1 2.4
2018-Jul-17 08:00N 35°22' E 139°50'0 0.1
2018-Jul-17 07:30N 35°22' E 139°50'0 0.1
2018-Jul-17 07:00N 35°22' E 139°50'1 2.2
2018-Jul-17 06:30N 35°22' E 139°51'2 3.4
2018-Jul-17 06:00N 35°21' E 139°49'0 0.1
2018-Jul-17 05:31N 35°21' E 139°49'2 3.5
2018-Jul-17 05:00N 35°21' E 139°51'0 0.3
2018-Jul-17 04:30N 35°21' E 139°51'1 2.3
2018-Jul-17 04:00N 35°22' E 139°50'0 0.2
2018-Jul-17 03:30N 35°22' E 139°50'1 1.5
2018-Jul-17 03:00N 35°22' E 139°51'1 1.2
2018-Jul-17 02:30N 35°22' E 139°50'3 0.2
2018-Jul-16 06:18N 35°22' E 139°54'310.6
2018-Jul-16 06:00N 35°22' E 139°50'2 3.6
2018-Jul-16 05:30N 35°20' E 139°49'0 0.1
2018-Jul-16 05:00N 35°20' E 139°49'0 0.2
2018-Jul-16 04:30N 35°20' E 139°49'1 2.2
2018-Jul-16 04:00N 35°21' E 139°49'1 2.7
2018-Jul-16 03:30N 35°23' E 139°48'0 0.2
2018-Jul-16 03:00N 35°23' E 139°48'3 6.7
2018-Jul-16 02:30N 35°22' E 139°52'2 0.2
2018-Jul-15 17:18N 35°22' E 139°54'2 5.2
2018-Jul-15 17:00N 35°22' E 139°52'0 0.0
2018-Jul-15 16:30N 35°22' E 139°52'0 0.7
2018-Jul-15 15:58N 35°22' E 139°52'2 4.4
2018-Jul-15 15:30N 35°23' E 139°50'2 4.1
2018-Jul-15 15:00N 35°25' E 139°49'1 1.2
2018-Jul-15 14:30N 35°26' E 139°50'4 8.2
2018-Jul-15 14:00N 35°22' E 139°52'0 0.4
2018-Jul-15 13:30N 35°22' E 139°52'1 1.6
2018-Jul-15 12:33N 35°22' E 139°54'0 0.0
2018-Jul-15 12:24N 35°22' E 139°54'0 0.0
2018-Jul-15 11:51N 35°22' E 139°54'0 0.0
2018-Jul-15 09:08N 35°22' E 139°54'1 4.3
2018-Jul-15 08:56N 35°22' E 139°53'0 0.0
2018-Jul-15 08:30N 35°22' E 139°53'0 1.0
2018-Jul-15 07:59N 35°22' E 139°53'0 0.5
2018-Jul-15 06:58N 35°22' E 139°54'0 0.0
2018-Jul-15 05:43N 35°22' E 139°54'0 0.0
2018-Jul-15 05:16N 35°22' E 139°54'0 0.0
2018-Jul-15 04:54N 35°22' E 139°54'0 0.0
2018-Jul-15 01:27N 35°22' E 139°54'0 0.0
2018-Jul-15 01:00N 35°22' E 139°54'0 0.0
2018-Jul-15 00:14N 35°22' E 139°54'0 0.0
2018-Jul-14 23:57N 35°22' E 139°54'0 0.0
2018-Jul-14 23:27N 35°22' E 139°54'0 0.6
2018-Jul-14 23:00N 35°22' E 139°54'1 2.1
2018-Jul-14 22:26N 35°22' E 139°52'0 0.6
2018-Jul-14 22:00N 35°22' E 139°52'2 3.6
2018-Jul-14 21:30N 35°23' E 139°50'2 4.5
2018-Jul-14 21:00N 35°25' E 139°48'1 1.8
2018-Jul-14 20:30N 35°25' E 139°49'4 8.2
2018-Jul-14 20:00N 35°22' E 139°52'1 0.1
2018-Jul-14 04:46N 35°22' E 139°54'2 7.3
2018-Jul-14 04:29N 35°22' E 139°52'3 5.3
2018-Jul-14 04:00N 35°21' E 139°49'0 0.0
2018-Jul-14 03:30N 35°21' E 139°49'0 0.2
2018-Jul-14 03:00N 35°21' E 139°49'2 3.2
2018-Jul-14 02:31N 35°22' E 139°48'1 1.1
2018-Jul-14 02:00N 35°23' E 139°48'0 0.2
2018-Jul-14 01:30N 35°23' E 139°48'4 7.2
2018-Jul-14 01:00N 35°22' E 139°52'1 2.6
2018-Jul-14 00:30N 35°21' E 139°54'0 0.0
2018-Jul-13 23:51N 35°21' E 139°54'1 2.2
2018-Jul-13 23:28N 35°22' E 139°53'0 0.3
2018-Jul-13 23:00N 35°22' E 139°53'2 3.5
2018-Jul-13 22:30N 35°23' E 139°51'0 0.5
2018-Jul-13 22:00N 35°23' E 139°51'0 0.4
2018-Jul-13 21:30N 35°23' E 139°51'2 4.5
2018-Jul-13 21:00N 35°22' E 139°54'0 0.0
2018-Jul-13 06:19N 35°22' E 139°54'310.1
2018-Jul-13 06:00N 35°23' E 139°50'2 4.5
2018-Jul-13 05:30N 35°21' E 139°49'0 0.2
2018-Jul-13 05:00N 35°20' E 139°49'0 0.5
2018-Jul-13 04:30N 35°21' E 139°49'0 0.2
2018-Jul-13 04:00N 35°21' E 139°49'0 0.3
2018-Jul-13 03:30N 35°20' E 139°49'0 0.5
2018-Jul-13 03:00N 35°21' E 139°49'0 0.3
2018-Jul-13 02:30N 35°21' E 139°49'0 0.4
2018-Jul-13 02:00N 35°21' E 139°49'0 0.4
2018-Jul-13 01:30N 35°21' E 139°49'0 0.7
2018-Jul-13 01:00N 35°21' E 139°49'0 0.7
2018-Jul-13 00:30N 35°21' E 139°49'0 0.1
2018-Jul-13 00:00N 35°21' E 139°49'0 0.3
2018-Jul-12 23:29N 35°21' E 139°49'0 0.4
2018-Jul-12 23:00N 35°21' E 139°49'0 0.6
2018-Jul-12 22:30N 35°21' E 139°49'0 0.3
2018-Jul-12 22:00N 35°20' E 139°49'0 0.2
2018-Jul-12 21:31N 35°20' E 139°49'0 0.5
2018-Jul-12 21:00N 35°21' E 139°49'0 0.3
2018-Jul-12 20:30N 35°20' E 139°49'0 0.6
2018-Jul-12 20:00N 35°21' E 139°49'0 0.4
2018-Jul-12 19:31N 35°21' E 139°49'0 0.0
2018-Jul-12 19:00N 35°21' E 139°49'0 0.1
2018-Jul-12 18:30N 35°21' E 139°49'0 0.1
2018-Jul-12 18:00N 35°21' E 139°49'0 0.0
2018-Jul-12 17:30N 35°21' E 139°49'0 0.1
2018-Jul-12 17:00N 35°21' E 139°49'0 0.1
2018-Jul-12 16:31N 35°21' E 139°49'0 0.0
2018-Jul-12 16:00N 35°21' E 139°49'0 0.0
2018-Jul-12 15:30N 35°21' E 139°49'0 0.0
2018-Jul-12 15:00N 35°21' E 139°49'0 0.0
2018-Jul-12 14:30N 35°21' E 139°49'0 0.0
2018-Jul-12 14:00N 35°21' E 139°49'0 0.0
2018-Jul-12 13:30N 35°21' E 139°49'0 0.7
2018-Jul-12 13:01N 35°21' E 139°49'0 0.3
2018-Jul-12 12:28N 35°21' E 139°49'  

Dump ship's entire track history